createdAt,value
2023-01-11T00:01:05.799Z,-2.40
2023-01-11T00:03:32.790Z,-2.50
2023-01-11T00:06:00.256Z,-2.50
2023-01-11T00:08:28.412Z,-2.50
2023-01-11T00:10:55.592Z,-2.70
2023-01-11T00:13:22.424Z,-2.80
2023-01-11T00:15:49.487Z,-2.70
2023-01-11T00:18:16.301Z,-2.80
2023-01-11T00:20:43.100Z,-2.60
2023-01-11T00:23:10.100Z,-2.80
2023-01-11T00:25:37.073Z,-2.70
2023-01-11T00:28:04.649Z,-2.50
2023-01-11T00:30:31.579Z,-2.30
2023-01-11T00:33:01.598Z,-1.90
2023-01-11T00:35:31.369Z,-2.60
2023-01-11T00:37:58.476Z,-2.50
2023-01-11T00:40:26.445Z,-2.50
2023-01-11T00:43:11.706Z,-2.60
2023-01-11T00:45:56.925Z,-2.50
2023-01-11T00:48:23.735Z,-2.40
2023-01-11T00:50:54.223Z,-2.50
2023-01-11T00:53:21.067Z,-2.80
2023-01-11T00:55:47.895Z,-2.80
2023-01-11T00:58:14.697Z,-2.90
2023-01-11T01:00:41.569Z,-3.10
2023-01-11T01:03:09.116Z,-2.80
2023-01-11T01:05:38.724Z,-2.50
2023-01-11T01:08:06.008Z,-2.50
2023-01-11T01:10:32.892Z,-2.50
2023-01-11T01:13:18.150Z,-2.40
2023-01-11T01:15:44.974Z,-2.50
2023-01-11T01:18:11.868Z,-2.90
2023-01-11T01:20:38.741Z,-2.80
2023-01-11T01:23:05.521Z,-2.80
2023-01-11T01:25:32.356Z,-2.90
2023-01-11T01:27:59.152Z,-2.90
2023-01-11T01:30:25.908Z,-2.80
2023-01-11T01:32:52.656Z,-2.80
2023-01-11T01:35:19.413Z,-2.90
2023-01-11T01:37:46.177Z,-2.80
2023-01-11T01:40:13.339Z,-2.60
2023-01-11T01:42:40.096Z,-2.50
2023-01-11T01:45:18.362Z,-2.70
2023-01-11T01:47:47.363Z,-2.70
2023-01-11T01:50:26.612Z,-2.40
2023-01-11T01:53:08.000Z,-2.40
2023-01-11T01:55:45.291Z,-2.90
2023-01-11T01:58:16.715Z,-2.90
2023-01-11T02:00:45.837Z,-2.70
2023-01-11T02:03:19.254Z,-2.50
2023-01-11T02:05:46.728Z,-2.50
2023-01-11T02:08:36.780Z,-2.90
2023-01-11T02:11:04.641Z,-3.20
2023-01-11T02:13:45.980Z,-3.30
2023-01-11T02:16:13.122Z,-3.20
2023-01-11T02:18:40.038Z,-3.00
2023-01-11T02:21:27.702Z,-2.90
2023-01-11T02:24:10.563Z,-3.00
2023-01-11T02:26:55.573Z,-2.70
2023-01-11T02:29:41.103Z,-2.60
2023-01-11T02:32:52.945Z,-2.50
2023-01-11T02:35:47.657Z,-2.90
2023-01-11T02:38:22.902Z,-3.00
2023-01-11T02:41:03.981Z,-3.20
2023-01-11T02:44:26.601Z,-3.30
2023-01-11T02:46:58.424Z,-3.10
2023-01-11T02:49:39.795Z,-2.90
2023-01-11T02:52:14.937Z,-3.40
2023-01-11T02:54:45.002Z,-3.20
2023-01-11T02:57:13.802Z,-3.00
2023-01-11T02:59:42.029Z,-3.30
2023-01-11T03:02:09.819Z,-3.10
2023-01-11T03:04:37.586Z,-3.20
2023-01-11T03:07:29.077Z,-3.00
2023-01-11T03:10:24.377Z,-3.10
2023-01-11T03:13:16.170Z,-3.10
2023-01-11T03:15:45.852Z,-3.20
2023-01-11T03:18:29.946Z,-3.10
2023-01-11T03:21:06.051Z,-3.00
2023-01-11T03:23:44.720Z,-3.10
2023-01-11T03:26:11.431Z,-3.10
2023-01-11T03:29:00.540Z,-3.10
2023-01-11T03:31:36.940Z,-3.00
2023-01-11T03:34:36.560Z,-3.30
2023-01-11T03:37:12.604Z,-3.30
2023-01-11T03:39:52.208Z,-3.40
2023-01-11T03:42:21.845Z,-3.30
2023-01-11T03:44:53.635Z,-3.40
2023-01-11T03:47:21.989Z,-3.50
2023-01-11T03:50:04.043Z,-3.50
2023-01-11T03:52:38.629Z,-3.60
2023-01-11T03:55:10.367Z,-3.40
2023-01-11T03:57:39.748Z,-3.70
2023-01-11T04:00:08.936Z,-3.30
2023-01-11T04:02:39.720Z,-3.20
2023-01-11T04:05:09.207Z,-3.40
2023-01-11T04:07:36.176Z,-3.70
2023-01-11T04:10:03.988Z,-3.60
2023-01-11T04:12:30.877Z,-3.60
2023-01-11T04:14:57.797Z,-3.50
2023-01-11T04:17:24.652Z,-3.60
2023-01-11T04:19:51.400Z,-3.40
2023-01-11T04:22:18.160Z,-3.90
2023-01-11T04:24:44.961Z,-3.90
2023-01-11T04:27:14.821Z,-3.70
2023-01-11T04:29:41.636Z,-3.20
2023-01-11T04:32:08.395Z,-3.20
2023-01-11T04:34:35.161Z,-3.10
2023-01-11T04:37:01.927Z,-3.20
2023-01-11T04:39:28.800Z,-3.80
2023-01-11T04:42:14.170Z,-3.50
2023-01-11T04:44:41.062Z,-3.80
2023-01-11T04:47:07.891Z,-3.80
2023-01-11T04:49:34.673Z,-3.70
2023-01-11T04:52:01.468Z,-3.60
2023-01-11T04:54:28.242Z,-3.60
2023-01-11T04:56:55.126Z,-3.40
2023-01-11T04:59:21.859Z,-3.70
2023-01-11T05:01:48.627Z,-3.70
2023-01-11T05:04:15.641Z,-4.00
2023-01-11T05:06:43.108Z,-3.90
2023-01-11T05:09:14.649Z,-3.80
2023-01-11T05:11:41.429Z,-3.50
2023-01-11T05:14:08.405Z,-3.40
2023-01-11T05:16:35.313Z,-3.60
2023-01-11T05:19:03.038Z,-3.50
2023-01-11T05:21:39.254Z,-3.40
2023-01-11T05:24:16.366Z,-3.50
2023-01-11T05:26:45.095Z,-4.10
2023-01-11T05:29:16.185Z,-3.90
2023-01-11T05:31:43.266Z,-4.00
2023-01-11T05:34:13.249Z,-3.90
2023-01-11T05:36:40.528Z,-3.80
2023-01-11T05:39:08.032Z,-3.70
2023-01-11T05:41:35.461Z,-3.80
2023-01-11T05:44:21.202Z,-3.60
2023-01-11T05:46:48.030Z,-3.90
2023-01-11T05:49:15.345Z,-4.10
2023-01-11T05:51:43.752Z,-3.80
2023-01-11T05:54:14.923Z,-3.70
2023-01-11T05:56:45.296Z,-3.70
2023-01-11T05:59:12.423Z,-3.70
2023-01-11T06:01:39.312Z,-4.20
2023-01-11T06:04:06.171Z,-4.10
2023-01-11T06:06:33.676Z,-4.00
2023-01-11T06:09:00.541Z,-3.90
2023-01-11T06:11:27.296Z,-3.70
2023-01-11T06:13:54.153Z,-3.70
2023-01-11T06:16:22.256Z,-3.90
2023-01-11T06:18:51.055Z,-3.90
2023-01-11T06:21:18.703Z,-3.70
2023-01-11T06:23:47.906Z,-3.30
2023-01-11T06:26:17.470Z,-3.60
2023-01-11T06:28:44.713Z,-3.50
2023-01-11T06:31:12.004Z,-3.40
2023-01-11T06:33:39.173Z,-3.50
2023-01-11T06:36:08.392Z,-3.80
2023-01-11T06:38:35.636Z,-3.40
2023-01-11T06:41:05.016Z,-3.10
2023-01-11T06:43:32.700Z,-3.30
2023-01-11T06:45:59.710Z,-3.50
2023-01-11T06:48:27.739Z,-3.70
2023-01-11T06:50:56.979Z,-3.70
2023-01-11T06:53:28.306Z,-3.50
2023-01-11T06:55:56.520Z,-3.50
2023-01-11T06:58:24.477Z,-3.60
2023-01-11T07:00:53.139Z,-4.00
2023-01-11T07:03:24.537Z,-3.90
2023-01-11T07:05:57.053Z,-3.80
2023-01-11T07:08:25.456Z,-3.70
2023-01-11T07:10:52.591Z,-3.50
2023-01-11T07:13:19.565Z,-3.80
2023-01-11T07:15:50.980Z,-3.80
2023-01-11T07:18:19.290Z,-3.30
2023-01-11T07:20:46.319Z,-3.00
2023-01-11T07:23:13.146Z,-3.00
2023-01-11T07:25:40.010Z,-3.20
2023-01-11T07:28:08.463Z,-3.30
2023-01-11T07:30:51.767Z,-3.30
2023-01-11T07:33:23.671Z,-3.20
2023-01-11T07:35:50.482Z,-2.80
2023-01-11T07:38:17.385Z,-2.80
2023-01-11T07:40:44.221Z,-2.70
2023-01-11T07:43:15.937Z,-2.80
2023-01-11T07:45:46.503Z,-2.70
2023-01-11T07:48:14.695Z,-2.80
2023-01-11T07:50:44.777Z,-2.70
2023-01-11T07:53:12.826Z,-2.60
2023-01-11T07:55:40.776Z,-2.40
2023-01-11T07:58:11.500Z,-2.40
2023-01-11T08:00:40.652Z,-2.40
2023-01-11T08:03:08.062Z,-2.30
2023-01-11T08:05:35.002Z,-2.10
2023-01-11T08:08:02.041Z,-2.00
2023-01-11T08:10:28.909Z,-1.90
2023-01-11T08:13:14.363Z,-1.80
2023-01-11T08:15:44.368Z,-1.70
2023-01-11T08:18:12.638Z,-1.70
2023-01-11T08:20:40.130Z,-1.50
2023-01-11T08:23:09.433Z,-1.20
2023-01-11T08:25:36.597Z,-1.10
2023-01-11T08:28:07.503Z,-1.00
2023-01-11T08:30:36.125Z,-1.00
2023-01-11T08:33:04.171Z,-0.90
2023-01-11T08:35:32.105Z,-0.70
2023-01-11T08:37:58.901Z,-0.40
2023-01-11T08:40:25.850Z,-0.30
2023-01-11T08:42:59.271Z,-0.30
2023-01-11T08:45:26.429Z,0.00
2023-01-11T08:47:54.001Z,-0.10
2023-01-11T08:50:22.493Z,0.10
2023-01-11T08:52:51.092Z,0.10
2023-01-11T08:55:19.021Z,0.20
2023-01-11T08:57:46.109Z,0.20
2023-01-11T09:00:13.728Z,0.40
2023-01-11T09:02:40.767Z,0.40
2023-01-11T09:05:07.984Z,0.40
2023-01-11T09:07:34.815Z,0.50
2023-01-11T09:10:01.695Z,0.50
2023-01-11T09:12:28.655Z,0.50
2023-01-11T09:14:55.506Z,0.60
2023-01-11T09:17:22.347Z,0.70
2023-01-11T09:19:49.316Z,0.80
2023-01-11T09:22:16.498Z,1.00
2023-01-11T09:24:43.294Z,1.10
2023-01-11T09:27:11.773Z,1.10
2023-01-11T09:29:38.754Z,1.10
2023-01-11T09:32:06.146Z,1.20
2023-01-11T09:34:33.328Z,1.20
2023-01-11T09:37:02.640Z,1.50
2023-01-11T09:39:29.662Z,1.60
2023-01-11T09:42:39.484Z,1.70
2023-01-11T09:45:13.062Z,1.70
2023-01-11T09:47:48.504Z,1.80
2023-01-11T09:50:21.846Z,1.90
2023-01-11T09:52:56.294Z,2.00
2023-01-11T09:55:37.031Z,2.10
2023-01-11T09:58:08.759Z,2.30
2023-01-11T10:00:53.189Z,2.40
2023-01-11T10:03:34.638Z,2.40
2023-01-11T10:06:35.283Z,2.40
2023-01-11T10:18:26.398Z,2.70
2023-01-11T10:19:18.657Z,2.90
2023-01-11T10:21:50.617Z,3.00
2023-01-11T10:24:26.348Z,3.10
2023-01-11T10:27:02.102Z,3.30
2023-01-11T10:29:49.879Z,3.40
2023-01-11T10:33:14.141Z,3.50
2023-01-11T10:36:46.413Z,3.60
2023-01-11T10:39:55.791Z,3.50
2023-01-11T10:42:25.880Z,3.50
2023-01-11T10:45:02.078Z,3.60
2023-01-11T10:47:37.505Z,3.60
2023-01-11T10:50:41.872Z,3.70
2023-01-11T10:53:19.149Z,3.80
2023-01-11T10:56:09.735Z,3.80
2023-01-11T10:59:04.032Z,3.90
2023-01-11T11:01:49.173Z,3.90
2023-01-11T11:04:37.365Z,4.00
2023-01-11T11:07:16.515Z,4.10
2023-01-11T11:09:55.153Z,4.20
2023-01-11T11:12:31.009Z,4.10
2023-01-11T11:15:03.833Z,4.20
2023-01-11T11:17:36.775Z,4.20
2023-01-11T11:20:25.841Z,4.30
2023-01-11T11:22:54.388Z,4.30
2023-01-11T11:25:37.418Z,4.40
2023-01-11T11:28:25.924Z,4.30
2023-01-11T11:30:55.667Z,4.40
2023-01-11T11:33:39.513Z,4.50
2023-01-11T11:36:11.935Z,4.50
2023-01-11T11:39:00.437Z,4.60
2023-01-11T11:41:27.287Z,4.60
2023-01-11T11:44:14.732Z,4.60
2023-01-11T11:46:41.801Z,4.50
2023-01-11T11:49:16.831Z,4.60
2023-01-11T11:51:46.988Z,4.60
2023-01-11T11:54:30.182Z,4.60
2023-01-11T11:57:00.069Z,4.60
2023-01-11T11:59:30.446Z,4.60
2023-01-11T12:02:05.207Z,4.50
2023-01-11T12:04:54.074Z,4.60
2023-01-11T12:07:24.354Z,4.60
2023-01-11T12:09:56.808Z,4.60
2023-01-11T12:12:27.346Z,4.60
2023-01-11T12:15:16.484Z,4.60
2023-01-11T12:17:43.749Z,4.70
2023-01-11T12:20:22.458Z,4.70
2023-01-11T12:23:08.051Z,4.70
2023-01-11T12:25:46.081Z,4.70
2023-01-11T12:28:40.942Z,4.70
2023-01-11T12:31:30.044Z,4.60
2023-01-11T12:34:13.118Z,4.60
2023-01-11T12:37:01.204Z,4.60
2023-01-11T12:39:54.830Z,4.60
2023-01-11T12:42:24.461Z,4.50
2023-01-11T12:44:56.956Z,4.50
2023-01-11T12:47:29.754Z,4.60
2023-01-11T12:50:08.552Z,4.70
2023-01-11T12:52:50.779Z,4.70
2023-01-11T12:55:26.452Z,4.80
2023-01-11T12:58:00.974Z,4.80
2023-01-11T13:00:34.537Z,4.70
2023-01-11T13:03:34.191Z,4.70
2023-01-11T13:06:32.271Z,4.70
2023-01-11T13:09:07.944Z,4.70
2023-01-11T13:11:51.067Z,4.80
2023-01-11T13:14:33.085Z,4.80
2023-01-11T13:17:18.119Z,4.90
2023-01-11T13:19:54.908Z,4.80
2023-01-11T13:22:25.704Z,4.90
2023-01-11T13:24:52.591Z,5.00
2023-01-11T13:27:24.892Z,5.00
2023-01-11T13:29:55.224Z,4.90
2023-01-11T13:32:37.447Z,5.00
2023-01-11T13:35:17.548Z,4.90
2023-01-11T13:38:15.312Z,4.90
2023-01-11T13:40:48.314Z,5.00
2023-01-11T13:43:36.023Z,4.90
2023-01-11T13:46:16.245Z,4.90
2023-01-11T13:48:56.042Z,4.80
2023-01-11T13:51:46.319Z,4.80
2023-01-11T13:54:44.307Z,4.80
2023-01-11T13:57:19.108Z,4.90
2023-01-11T13:59:51.462Z,4.90
2023-01-11T14:02:43.648Z,5.00
2023-01-11T14:05:18.302Z,4.90
2023-01-11T14:08:15.547Z,4.90
2023-01-11T14:10:50.770Z,4.90
2023-01-11T14:17:36.582Z,4.90
2023-01-11T14:20:22.387Z,4.70
2023-01-11T14:23:13.817Z,4.70
2023-01-11T14:25:49.349Z,4.60
2023-01-11T14:28:28.893Z,4.50
2023-01-11T14:30:55.653Z,4.50
2023-01-11T14:33:33.408Z,4.40
2023-01-11T14:36:25.203Z,4.30
2023-01-11T14:39:07.645Z,4.30
2023-01-11T14:41:51.904Z,4.20
2023-01-11T14:44:28.904Z,4.10
2023-01-11T14:47:36.789Z,4.10
2023-01-11T14:50:27.285Z,4.00
2023-01-11T14:52:59.142Z,4.00
2023-01-11T14:55:29.158Z,3.90
2023-01-11T14:57:55.874Z,3.70
2023-01-11T15:00:22.569Z,3.70
2023-01-11T15:03:12.252Z,3.60
2023-01-11T15:05:47.103Z,3.40
2023-01-11T15:08:13.789Z,3.30
2023-01-11T15:10:46.001Z,3.40
2023-01-11T15:13:29.405Z,3.40
2023-01-11T15:16:45.119Z,3.30
2023-01-11T15:19:34.163Z,3.40
2023-01-11T15:22:03.756Z,3.30
2023-01-11T15:24:38.288Z,3.20
2023-01-11T15:27:05.728Z,3.10
2023-01-11T15:29:37.404Z,3.10
2023-01-11T15:32:28.832Z,3.00
2023-01-11T15:35:16.614Z,2.90
2023-01-11T15:38:13.786Z,2.70
2023-01-11T15:40:46.536Z,2.20
2023-01-11T15:43:45.311Z,2.30
2023-01-11T15:46:53.176Z,2.40
2023-01-11T15:49:32.148Z,2.50
2023-01-11T15:52:17.648Z,1.90
2023-01-11T15:54:44.384Z,1.70
2023-01-11T15:57:34.741Z,1.90
2023-01-11T16:00:20.344Z,2.00
2023-01-11T16:03:22.455Z,1.60
2023-01-11T16:06:18.344Z,1.60
2023-01-11T16:09:20.847Z,1.80
2023-01-11T16:12:00.537Z,2.00
2023-01-11T16:14:51.410Z,2.10
2023-01-11T16:17:22.563Z,2.20
2023-01-11T16:19:55.354Z,2.30
2023-01-11T16:22:25.826Z,2.20
2023-01-11T16:24:59.967Z,1.80
2023-01-11T16:27:34.579Z,1.80
2023-01-11T16:30:01.860Z,1.90
2023-01-11T16:32:33.457Z,2.00
2023-01-11T16:35:02.028Z,1.80
2023-01-11T16:37:33.869Z,1.80
2023-01-11T16:40:06.670Z,1.90
2023-01-11T16:42:39.585Z,1.90
2023-01-11T16:45:13.598Z,1.80
2023-01-11T16:47:40.404Z,1.80
2023-01-11T16:50:20.127Z,1.90
2023-01-11T16:52:59.223Z,1.80
2023-01-11T16:55:37.918Z,1.60
2023-01-11T16:58:16.216Z,1.80
2023-01-11T17:00:43.401Z,2.00
2023-01-11T17:03:19.829Z,2.00
2023-01-11T17:05:58.556Z,2.10
2023-01-11T17:08:50.373Z,1.70
2023-01-11T17:11:28.971Z,1.50
2023-01-11T17:14:23.556Z,1.70
2023-01-11T17:16:59.102Z,1.60
2023-01-11T17:19:31.989Z,1.40
2023-01-11T17:22:22.046Z,1.50
2023-01-11T17:24:59.219Z,1.50
2023-01-11T17:27:30.699Z,1.50
2023-01-11T17:29:58.312Z,1.40
2023-01-11T17:32:42.384Z,1.40
2023-01-11T17:35:22.433Z,1.50
2023-01-11T17:37:52.097Z,1.60
2023-01-11T17:40:27.967Z,1.40
2023-01-11T17:43:19.596Z,0.90
2023-01-11T17:45:57.979Z,1.10
2023-01-11T17:48:26.979Z,1.30
2023-01-11T17:50:59.491Z,1.10
2023-01-11T17:53:34.810Z,1.20
2023-01-11T17:56:02.977Z,1.20
2023-01-11T17:58:36.299Z,1.20
2023-01-11T18:01:09.387Z,1.20
2023-01-11T18:03:51.280Z,1.50
2023-01-11T18:06:41.449Z,1.30
2023-01-11T18:09:29.377Z,1.40
2023-01-11T18:12:27.805Z,1.50
2023-01-11T18:15:00.672Z,1.60
2023-01-11T18:17:35.773Z,1.60
2023-01-11T18:20:28.577Z,1.60
2023-01-11T18:23:14.057Z,1.50
2023-01-11T18:25:41.552Z,1.50
2023-01-11T18:28:29.478Z,1.50
2023-01-11T18:31:02.423Z,1.20
2023-01-11T18:33:33.297Z,1.30
2023-01-11T18:36:03.526Z,1.40
2023-01-11T18:38:35.396Z,1.50
2023-01-11T18:41:28.038Z,1.50
2023-01-11T18:43:55.497Z,1.40
2023-01-11T18:46:22.348Z,1.30
2023-01-11T18:48:49.211Z,1.40
2023-01-11T18:51:28.190Z,1.50
2023-01-11T18:54:04.426Z,1.50
2023-01-11T18:56:33.005Z,1.50
2023-01-11T18:58:59.802Z,1.50
2023-01-11T19:01:27.947Z,1.50
2023-01-11T19:03:54.889Z,1.50
2023-01-11T19:06:22.791Z,1.40
2023-01-11T19:08:49.719Z,1.60
2023-01-11T19:11:16.950Z,1.70
2023-01-11T19:13:46.547Z,1.80
2023-01-11T19:16:13.958Z,1.70
2023-01-11T19:18:40.789Z,1.50
2023-01-11T19:21:09.270Z,1.40
2023-01-11T19:23:36.044Z,1.40
2023-01-11T19:26:02.887Z,1.50
2023-01-11T19:28:30.244Z,1.50
2023-01-11T19:30:57.191Z,1.60
2023-01-11T19:33:24.153Z,1.70
2023-01-11T19:35:51.221Z,1.70
2023-01-11T19:38:19.527Z,1.80
2023-01-11T19:40:49.604Z,1.70
2023-01-11T19:43:17.384Z,1.70
2023-01-11T19:45:44.246Z,1.70
2023-01-11T19:48:12.392Z,1.70
2023-01-11T19:50:39.139Z,1.70
2023-01-11T19:53:06.003Z,1.70
2023-01-11T19:55:32.757Z,1.70
2023-01-11T19:57:59.541Z,1.70
2023-01-11T20:00:26.280Z,1.70
2023-01-11T20:02:53.202Z,1.70
2023-01-11T20:05:20.017Z,1.70
2023-01-11T20:07:46.804Z,1.80
2023-01-11T20:10:13.555Z,1.90
2023-01-11T20:12:40.313Z,1.70
2023-01-11T20:15:07.703Z,1.60
2023-01-11T20:17:37.776Z,1.60
2023-01-11T20:20:06.202Z,1.60
2023-01-11T20:22:33.376Z,1.60
2023-01-11T20:25:00.520Z,1.60
2023-01-11T20:27:28.174Z,1.60
2023-01-11T20:29:55.039Z,1.60
2023-01-11T20:32:40.805Z,1.60
2023-01-11T20:35:09.558Z,1.40
2023-01-11T20:37:36.391Z,1.20
2023-01-11T20:40:03.416Z,1.20
2023-01-11T20:42:31.025Z,1.30
2023-01-11T20:44:57.800Z,1.40
2023-01-11T20:47:25.213Z,1.40
2023-01-11T20:49:51.933Z,1.50
2023-01-11T20:52:18.721Z,1.30
2023-01-11T20:54:45.637Z,1.20
2023-01-11T20:57:12.940Z,1.30
2023-01-11T20:59:39.870Z,1.30
2023-01-11T21:02:07.729Z,1.20
2023-01-11T21:04:35.765Z,1.30
2023-01-11T21:07:02.799Z,1.30
2023-01-11T21:09:29.888Z,1.40
2023-01-11T21:11:56.743Z,1.50
2023-01-11T21:14:23.861Z,1.50
2023-01-11T21:16:50.959Z,1.40
2023-01-11T21:19:17.832Z,1.20
2023-01-11T21:21:44.785Z,1.20
2023-01-11T21:24:13.721Z,1.30
2023-01-11T21:26:42.341Z,1.30
2023-01-11T21:29:10.675Z,1.30
2023-01-11T21:31:38.389Z,1.40
2023-01-11T21:34:05.715Z,1.50
2023-01-11T21:36:32.814Z,1.60
2023-01-11T21:39:00.383Z,1.70
2023-01-11T21:41:48.161Z,1.70
2023-01-11T21:44:16.051Z,1.70
2023-01-11T21:46:43.611Z,1.70
2023-01-11T21:49:11.350Z,1.60
2023-01-11T21:51:39.514Z,1.50
2023-01-11T21:54:08.674Z,1.50
2023-01-11T21:56:35.838Z,1.50
2023-01-11T21:59:03.240Z,1.60
2023-01-11T22:01:30.171Z,1.70
2023-01-11T22:03:57.681Z,1.60
2023-01-11T22:06:24.524Z,1.60
2023-01-11T22:08:51.334Z,1.60
2023-01-11T22:11:18.553Z,1.60
2023-01-11T22:13:45.453Z,1.50
2023-01-11T22:16:14.835Z,1.60
2023-01-11T22:18:42.842Z,1.70
2023-01-11T22:21:15.778Z,1.70
2023-01-11T22:23:42.713Z,1.70
2023-01-11T22:26:17.800Z,1.80
2023-01-11T22:29:04.571Z,1.80
2023-01-11T22:31:32.766Z,1.70
2023-01-11T22:34:00.504Z,1.80
2023-01-11T22:36:28.350Z,1.80
2023-01-11T22:38:56.501Z,1.90
2023-01-11T22:41:24.923Z,1.90
2023-01-11T22:43:51.851Z,1.80
2023-01-11T22:46:21.717Z,1.80
2023-01-11T22:48:49.167Z,1.80
2023-01-11T22:51:24.630Z,1.80
2023-01-11T22:53:52.795Z,1.80
2023-01-11T22:56:22.230Z,1.80
2023-01-11T22:58:50.637Z,1.90
2023-01-11T23:01:23.323Z,1.80
2023-01-11T23:03:52.807Z,1.70
2023-01-11T23:06:23.568Z,1.80
2023-01-11T23:08:50.510Z,1.80
2023-01-11T23:11:38.355Z,1.80
2023-01-11T23:14:08.066Z,1.80
2023-01-11T23:16:36.335Z,1.60
2023-01-11T23:19:04.565Z,1.60
2023-01-11T23:21:31.450Z,1.70
2023-01-11T23:24:00.123Z,1.80
2023-01-11T23:26:26.948Z,1.80
2023-01-11T23:28:53.876Z,1.80
2023-01-11T23:31:22.992Z,1.80
2023-01-11T23:33:56.176Z,1.90
2023-01-11T23:36:26.315Z,1.90
2023-01-11T23:38:53.052Z,1.90
2023-01-11T23:41:39.721Z,1.90
2023-01-11T23:44:09.258Z,1.90
2023-01-11T23:46:56.007Z,1.70
2023-01-11T23:49:24.821Z,1.80
2023-01-11T23:51:52.069Z,1.80
2023-01-11T23:54:18.923Z,1.80
2023-01-11T23:56:45.716Z,1.80
2023-01-11T23:59:13.041Z,1.90
